This is the latest recevied weather packets stored in our database for station/object KE8YTO. If no packets are shown the sender has not sent any weather packets the latest 10 day(s).
| Time | Temp. | Humidity | Pressure | Rain* | Wind** | Luminosity | Snow |
|---|---|---|---|---|---|---|---|
| 1777745432 | 9.44° C | 44% | 994.1 hPa | 0 mm | - | - | - |
| 1777744819 | 9.44° C | 43% | 994.2 hPa | 0 mm | - | - | - |
| 1777744224 | 9.44° C | 43% | 994.2 hPa | 0 mm | - | - | - |
| 1777743036 | 10° C | 42% | 994.4 hPa | 0 mm | - | - | - |
| 1777741826 | 9.44° C | 46% | 994.5 hPa | 0 mm | - | - | - |
| 1777738219 | 8.33° C | 49% | 995 hPa | 0 mm | - | - | - |
| 1777737644 | 7.78° C | 50% | 995 hPa | 0 mm | - | - | - |
| 1777737022 | 7.78° C | 49% | 994.9 hPa | 0 mm | - | - | - |
| 1777735820 | 8.33° C | 47% | 994.9 hPa | 0 mm | - | - | - |
| 1777735219 | 8.89° C | 45% | 995 hPa | 0 mm | - | - | - |
| 1777731024 | 7.78° C | 51% | 995.2 hPa | 0 mm | - | - | - |
| 1777720817 | -0.56° C | 88% | 995.1 hPa | 0 mm | - | - | - |
| 1777714849 | 0° C | 80% | 994.8 hPa | 0 mm | - | - | - |
| 1777714216 | 0° C | 81% | 994.7 hPa | 0 mm | - | - | - |
| 1777710031 | 2.22° C | 73% | 994.4 hPa | 0 mm | - | - | - |
| 1777707615 | 2.22° C | 72% | 994.3 hPa | 0 mm | - | - | - |
| 1777701035 | 2.78° C | 69% | 994.6 hPa | 0 mm | - | - | - |
| 1777700440 | 2.78° C | 68% | 994.6 hPa | 0 mm | - | - | - |
| 1777698021 | 2.78° C | 68% | 994.4 hPa | 0 mm | - | - | - |
| 1777696239 | 3.33° C | 66% | 994.4 hPa | 0 mm | - | - | - |
| 1777693840 | 3.89° C | 65% | 994.3 hPa | 0 mm | - | - | - |
| 1777686048 | 4.44° C | 53% | 993.5 hPa | 0 mm | - | - | - |
| 1777683016 | 5° C | 52% | 993.2 hPa | 0 mm | - | - | - |
| 1777678853 | 6.67° C | 49% | 992.4 hPa | 0 mm | - | - | - |
| 1777675821 | 7.78° C | 47% | 992.2 hPa | 0 mm | - | - | - |
* Rain latest hour (hover to see other rain measurements)
** Current wind speed in m/s (hover to see current wind gust speed)